Estación Meteorológica Peña el Pijo (Robertgarden) [ 04/25/18 02:55:16 CEST ]

Fecha Hora Presion(HPa) Temp (°C) Humedad % Rocio (°C) Viento ( m/s) Direccion Lluvia 1Hora(mm) Lluvia 24H(mm) LLuvia Total(mm)
2017-Nov-29 01:01:51 1000.400 9.0 84 6.4       0.51 1468.53
2017-Nov-29 02:01:45 999.600 9.1 85 6.7     1.03 1.55 1469.56
2017-Nov-29 03:06:51 999.000 9.6 87 7.5     1.55 3.10 1471.12
2017-Nov-29 04:10:06 997.700 9.5 87 7.4     1.03 4.14 1472.15
2017-Nov-29 05:01:49 996.500 9.1 87 7.0       4.14 1472.15
2017-Nov-29 06:01:41 996.100 9.2 88 7.3       4.14 1472.15
2017-Nov-29 07:02:08 996.000 9.5 88 7.6     1.55 5.69 1473.71
2017-Nov-29 08:01:29 995.300 9.3 88 7.4     0.51 6.21 1474.22
2017-Nov-29 09:01:54 995.300 9.8 89 8.0     0.51 6.73 1474.74
2017-Nov-29 10:01:33 996.200 8.6 88 6.7     1.03 7.77 1475.78
2017-Nov-29 11:01:43 996.800 7.9 88 6.1     1.55 9.32 1477.33
2017-Nov-29 12:01:32 996.900 8.1 89 6.4     1.03 10.36 1478.37
2017-Nov-29 13:01:39 996.200 8.7 89 7.0     0.51 10.87 1478.89
2017-Nov-29 14:01:33 995.600 9.5 88 7.6     0.51 11.39 1479.40
2017-Nov-29 15:01:40 995.200 9.8 88 7.9       11.39 1479.40
2017-Nov-29 16:02:00 995.500 9.2 88 7.3       11.39 1479.40
2017-Nov-29 17:01:52 995.900 9.0 88 7.1       11.39 1479.40
2017-Nov-29 18:01:47 996.100 8.1 88 6.2       10.87 1479.40
2017-Nov-29 19:01:50 996.500 7.2 88 5.4       10.87 1479.40
2017-Nov-29 20:01:45 997.000 5.8 88 4.1       10.87 1479.40
2017-Nov-29 21:01:57 997.500 5.6 89 3.9       10.87 1479.40
2017-Nov-29 22:01:40 997.700 6.1 89 4.4       10.87 1479.40
2017-Nov-29 23:01:47 998.100 6.1 90 4.6       10.87 1479.40

Temperatura Máxima:    Temperatura Mínima:
Presión Máxima:1000.400 Hpa    Presión Mínima:995.200 Hpa


Volver